Time;durP1;ratioP1;P1;durP2;ratioP2;P2;SDS_P1;SDS_P2;PMS_P1;PMS_P2;Temp;Humidity;BMP_temperature;BMP_pressure;BME280_temperature;BME280_humidity;BME280_pressure;Samples;Min_cycle;Max_cycle;Signal;HPM_P1;HPM_P2
2021/08/09 00:02:50;;;;;;;8.95;2.63;;;;;;;12.24;65.90;99927.09;10448250;28;20045;-60
2021/08/09 00:07:53;;;;;;;9.70;2.72;;;;;;;12.13;65.67;99935.66;10463129;28;20060;-60
2021/08/09 00:12:55;;;;;;;5.50;1.80;;;;;;;11.92;66.15;99941.47;10447369;28;20049;-60
2021/08/09 00:17:57;;;;;;;6.00;2.55;;;;;;;11.87;66.30;99943.53;10446225;28;20045;-60
2021/08/09 00:22:58;;;;;;;7.80;2.65;;;;;;;11.77;66.78;99943.31;10446631;28;20140;-60
2021/08/09 00:28:00;;;;;;;6.13;2.20;;;;;;;11.83;66.88;99948.16;10447959;28;20477;-61
2021/08/09 00:33:02;;;;;;;5.85;2.50;;;;;;;11.99;66.65;99947.97;10447134;28;20077;-60
2021/08/09 00:38:04;;;;;;;8.15;2.70;;;;;;;12.10;66.21;99943.75;10445541;28;20139;-60
2021/08/09 00:43:06;;;;;;;5.85;2.40;;;;;;;12.11;66.07;99953.28;10446465;28;20663;-60
2021/08/09 00:48:07;;;;;;;9.90;2.63;;;;;;;11.97;65.96;99957.72;10435737;28;20136;-60
2021/08/09 00:53:09;;;;;;;10.38;2.70;;;;;;;11.79;66.32;99945.81;10424843;28;20143;-60
2021/08/09 00:58:11;;;;;;;5.90;2.92;;;;;;;11.65;66.78;99940.63;10446792;28;20124;-60
2021/08/09 01:03:13;;;;;;;7.60;2.40;;;;;;;11.67;66.61;99944.00;10445370;28;20132;-60
2021/08/09 01:08:46;;;;;;;9.23;2.70;;;;;;;11.55;66.89;99944.78;10446465;28;20136;-60
2021/08/09 01:14:00;;;;;;;5.53;2.50;;;;;;;11.65;67.38;99943.25;10445498;28;20055;-60
2021/08/09 01:19:11;;;;;;;9.30;2.70;;;;;;;11.70;66.65;99942.00;10447201;28;20128;-60
2021/08/09 01:24:26;;;;;;;8.88;3.00;;;;;;;11.55;66.73;99936.91;10462226;28;20127;-60
2021/08/09 01:29:37;;;;;;;7.43;2.58;;;;;;;11.49;66.70;99938.16;10447086;28;20461;-60
2021/08/09 01:34:41;;;;;;;11.40;3.72;;;;;;;11.45;66.62;99946.28;10446576;28;20571;-60
2021/08/09 01:39:43;;;;;;;7.78;2.40;;;;;;;11.37;66.97;99953.78;10445780;28;20152;-61
2021/08/09 01:44:46;;;;;;;5.10;2.65;;;;;;;11.30;67.37;99959.41;10444792;28;20115;-60
2021/08/09 01:49:48;;;;;;;10.13;2.50;;;;;;;11.39;67.53;99955.38;10446721;28;20488;-60
2021/08/09 01:54:50;;;;;;;10.10;2.63;;;;;;;11.66;67.08;99971.13;10420085;28;20401;-60
2021/08/09 01:59:52;;;;;;;8.02;2.63;;;;;;;11.64;66.87;99973.00;10446109;28;20132;-60
2021/08/09 02:04:54;;;;;;;7.35;2.80;;;;;;;11.82;66.66;99983.16;10452793;28;20513;-60
2021/08/09 02:09:56;;;;;;;8.90;2.83;;;;;;;11.71;66.75;99987.38;10452147;28;20140;-60
2021/08/09 02:15:02;;;;;;;9.45;3.10;;;;;;;11.75;66.59;99991.50;10452882;28;20120;-60
2021/08/09 02:20:12;;;;;;;5.75;2.60;;;;;;;11.74;66.82;99984.59;10453051;28;20132;-60
2021/08/09 02:25:33;;;;;;;7.70;2.40;;;;;;;11.62;66.95;99975.72;10429044;28;20083;-60
2021/08/09 02:30:41;;;;;;;7.57;2.38;;;;;;;11.80;66.90;99969.31;10453225;28;20474;-60
2021/08/09 02:35:44;;;;;;;10.80;3.10;;;;;;;11.89;66.52;99970.50;10453586;28;20094;-60
2021/08/09 02:40:47;;;;;;;6.88;2.22;;;;;;;11.91;66.44;99971.22;10452992;28;20045;-60
2021/08/09 02:45:49;;;;;;;6.47;2.90;;;;;;;11.88;66.49;99976.69;10453119;28;20132;-60
2021/08/09 02:50:51;;;;;;;6.45;2.22;;;;;;;11.97;66.59;99976.91;10448910;28;20132;-60
2021/08/09 02:55:59;;;;;;;7.45;2.58;;;;;;;12.05;66.40;99981.66;10411997;28;20465;-60
2021/08/09 03:01:01;;;;;;;9.63;2.63;;;;;;;12.08;66.09;99981.47;10412044;28;20125;-60
2021/08/09 03:06:05;;;;;;;11.68;2.75;;;;;;;11.87;66.24;99980.22;10436934;28;20056;-60
2021/08/09 03:11:10;;;;;;;5.95;2.58;;;;;;;11.87;66.54;99978.47;10446074;28;20136;-60
2021/08/09 03:16:12;;;;;;;8.43;2.97;;;;;;;11.97;66.33;99981.31;10445574;28;20103;-60
2021/08/09 03:21:14;;;;;;;10.95;2.75;;;;;;;12.06;66.21;99985.97;10444531;28;20037;-60
2021/08/09 03:26:16;;;;;;;8.05;2.55;;;;;;;12.08;66.08;99984.94;10450514;28;20127;-60
2021/08/09 03:31:18;;;;;;;8.02;2.80;;;;;;;12.10;65.91;99979.59;10452942;28;20151;-60
2021/08/09 03:36:19;;;;;;;7.00;2.83;;;;;;;11.92;66.18;99980.78;10453210;28;20037;-60
2021/08/09 03:41:21;;;;;;;8.75;2.70;;;;;;;11.98;66.16;99983.00;10452679;28;20129;-60
2021/08/09 03:46:23;;;;;;;8.23;2.72;;;;;;;12.04;66.03;99974.75;10452737;28;20053;-60
2021/08/09 03:51:25;;;;;;;7.85;2.30;;;;;;;12.05;66.13;99976.41;10441643;28;20545;-60
2021/08/09 03:56:26;;;;;;;7.88;2.53;;;;;;;12.03;66.14;99973.91;10410940;28;20120;-60
2021/08/09 04:01:28;;;;;;;5.65;2.20;;;;;;;11.88;66.11;99963.59;10410517;28;20050;-60
2021/08/09 04:06:30;;;;;;;7.53;2.97;;;;;;;11.85;66.37;99955.91;10417413;28;20115;-60
2021/08/09 04:11:32;;;;;;;7.28;2.40;;;;;;;11.77;66.69;99958.19;10451892;28;20055;-60
2021/08/09 04:16:34;;;;;;;4.70;2.38;;;;;;;11.79;66.85;99951.91;10451824;28;20135;-60
2021/08/09 04:21:35;;;;;;;9.82;3.17;;;;;;;11.94;66.62;99956.16;10450589;28;20088;-60
2021/08/09 04:26:37;;;;;;;8.85;2.50;;;;;;;12.07;66.09;99950.94;10450633;28;20129;-60
2021/08/09 04:31:42;;;;;;;8.48;2.47;;;;;;;12.10;66.00;99951.59;10450881;28;20457;-60
2021/08/09 04:36:44;;;;;;;9.13;2.63;;;;;;;12.02;65.72;99956.50;10448845;28;20073;-60
2021/08/09 04:41:46;;;;;;;9.00;3.55;;;;;;;11.84;66.05;99943.75;10419822;28;20124;-60
2021/08/09 04:47:07;;;;;;;8.35;2.53;;;;;;;11.94;66.34;99948.31;10427504;28;20041;-60
2021/08/09 04:52:09;;;;;;;6.15;2.50;;;;;;;12.16;65.73;99966.09;10449967;28;20055;-60
2021/08/09 04:57:11;;;;;;;12.05;3.08;;;;;;;12.50;65.38;99973.44;10450074;28;20076;-60
2021/08/09 05:02:13;;;;;;;8.35;2.70;;;;;;;12.95;64.38;99967.69;10449547;28;20080;-61
2021/08/09 05:07:15;;;;;;;42.92;4.00;;;;;;;13.12;63.72;99965.69;10449317;28;20083;-60
2021/08/09 05:12:17;;;;;;;16.90;3.20;;;;;;;13.45;63.26;99971.22;10449675;28;20132;-60
2021/08/09 05:17:18;;;;;;;7.35;2.53;;;;;;;15.09;59.88;99968.53;10446879;28;20141;-59
2021/08/09 05:22:20;;;;;;;6.20;2.22;;;;;;;15.91;56.97;99961.03;10448490;28;20551;-60
2021/08/09 05:27:22;;;;;;;7.40;2.30;;;;;;;15.31;58.49;99964.09;10430594;28;20128;-60
2021/08/09 05:32:23;;;;;;;8.45;2.38;;;;;;;15.35;58.11;99967.31;10448760;28;20156;-60
2021/08/09 05:37:29;;;;;;;7.35;2.13;;;;;;;15.59;57.74;99985.69;10448216;28;20491;-60
2021/08/09 05:42:31;;;;;;;8.20;2.28;;;;;;;15.85;57.41;99987.91;10409941;28;20474;-60
2021/08/09 05:47:32;;;;;;;7.85;2.60;;;;;;;15.97;56.92;99986.09;10406707;28;20076;-60
2021/08/09 05:52:34;;;;;;;11.82;2.45;;;;;;;15.97;57.08;99968.47;10406586;28;20141;-60
2021/08/09 05:57:36;;;;;;;7.57;2.22;;;;;;;16.03;57.07;99975.88;10406110;28;20132;-60
2021/08/09 06:02:44;;;;;;;6.22;2.40;;;;;;;15.75;57.56;99979.06;10405981;28;20049;-60
2021/08/09 06:07:46;;;;;;;5.95;2.40;;;;;;;15.27;58.06;99989.03;10407295;28;20136;-60
2021/08/09 06:12:49;;;;;;;6.75;2.50;;;;;;;14.94;58.97;99990.81;10429544;28;20052;-61
2021/08/09 06:17:50;;;;;;;5.63;2.40;;;;;;;15.04;59.69;99994.41;10446991;28;20132;-60
2021/08/09 06:22:53;;;;;;;6.65;2.45;;;;;;;15.24;59.02;99991.91;10446516;28;20485;-63
2021/08/09 06:27:54;;;;;;;7.80;2.53;;;;;;;15.47;58.60;100005.06;10446241;28;20079;-60
2021/08/09 06:32:56;;;;;;;9.90;2.78;;;;;;;15.35;58.46;99999.78;10445445;28;20079;-61
2021/08/09 06:37:58;;;;;;;5.93;2.60;;;;;;;15.60;58.73;100008.44;10433238;28;20605;-61
2021/08/09 06:43:01;;;;;;;8.25;2.95;;;;;;;15.88;58.30;100003.47;10436762;28;20421;-60
2021/08/09 06:48:04;;;;;;;8.15;2.60;;;;;;;16.29;57.69;100004.56;10444925;28;20129;-61
2021/08/09 06:53:06;;;;;;;5.25;2.50;;;;;;;16.59;57.38;99996.78;10445906;28;20132;-60
2021/08/09 06:58:08;;;;;;;4.75;2.60;;;;;;;17.12;56.23;99993.06;10444523;28;20137;-60
2021/08/09 07:03:10;;;;;;;6.63;2.70;;;;;;;16.63;55.75;99985.81;10452898;28;20127;-60
2021/08/09 07:08:12;;;;;;;8.32;2.60;;;;;;;16.52;55.78;99982.41;10444425;28;20091;-60
2021/08/09 07:13:14;;;;;;;4.93;2.30;;;;;;;16.53;56.09;99990.19;10452755;28;20454;-60
2021/08/09 07:18:16;;;;;;;6.95;2.45;;;;;;;16.47;55.87;100000.44;10453968;28;20300;-59
2021/08/09 07:23:18;;;;;;;6.47;2.42;;;;;;;16.55;56.34;100004.09;10453829;28;20049;-60
2021/08/09 07:28:19;;;;;;;5.93;2.40;;;;;;;17.07;55.65;99994.44;10453069;28;20079;-60
2021/08/09 07:33:21;;;;;;;7.03;2.13;;;;;;;17.11;55.42;99991.41;10452626;28;20492;-60
2021/08/09 07:38:23;;;;;;;6.60;2.20;;;;;;;17.35;54.34;99999.91;10452634;28;20553;-60
2021/08/09 07:43:25;;;;;;;8.05;2.25;;;;;;;18.40;53.52;99988.72;10438700;28;20133;-60
2021/08/09 07:48:26;;;;;;;6.57;2.20;;;;;;;19.68;50.38;99986.28;10411099;28;20087;-60
2021/08/09 07:53:29;;;;;;;9.20;2.30;;;;;;;20.68;48.23;99978.03;10411413;28;20092;-60
2021/08/09 07:58:31;;;;;;;5.30;2.05;;;;;;;21.21;46.98;99977.06;10410788;28;20460;-61
2021/08/09 08:03:32;;;;;;;5.63;1.90;;;;;;;22.14;45.82;99972.44;10411528;28;20076;-61
2021/08/09 08:08:34;;;;;;;4.43;1.80;;;;;;;22.60;44.76;99960.28;10434664;28;20057;-60
2021/08/09 08:13:36;;;;;;;4.00;1.60;;;;;;;23.23;42.69;99957.69;10450153;28;20083;-61
2021/08/09 08:18:38;;;;;;;4.60;1.92;;;;;;;23.61;41.81;99964.94;10451312;28;20079;-60
2021/08/09 08:23:39;;;;;;;5.78;1.50;;;;;;;23.98;41.26;99953.53;10434575;28;20155;-61
2021/08/09 08:28:41;;;;;;;3.75;1.40;;;;;;;24.47;41.60;99949.50;10409573;28;20081;-61
2021/08/09 08:33:43;;;;;;;4.72;1.63;;;;;;;24.87;38.99;99943.84;10424558;28;20107;-61
2021/08/09 08:38:44;;;;;;;3.08;1.50;;;;;;;24.14;40.60;99951.59;10448085;28;20135;-61
2021/08/09 08:43:46;;;;;;;5.20;1.60;;;;;;;23.69;41.54;99958.72;10448549;28;20076;-61
2021/08/09 08:48:48;;;;;;;6.78;2.05;;;;;;;23.91;40.36;99955.25;10449386;28;20091;-61
2021/08/09 08:53:59;;;;;;;4.38;1.88;;;;;;;23.37;41.63;99957.00;10430100;28;20045;-61
2021/08/09 08:59:00;;;;;;;9.38;1.67;;;;;;;23.97;40.16;99952.72;10408572;28;20081;-61
2021/08/09 09:04:28;;;;;;;4.75;1.70;;;;;;;23.95;38.60;99945.88;10405072;28;20053;-62
2021/08/09 09:09:33;;;;;;;3.15;1.50;;;;;;;24.43;38.20;99939.38;10438285;28;20122;-61
2021/08/09 09:14:35;;;;;;;5.45;1.58;;;;;;;24.84;38.29;99940.66;10448043;28;20052;-61
2021/08/09 09:19:41;;;;;;;4.75;1.60;;;;;;;24.98;35.92;99935.34;10472676;28;20044;-61
2021/08/09 09:24:49;;;;;;;4.50;1.80;;;;;;;24.13;37.77;99931.25;10453831;28;20099;-61
2021/08/09 09:29:51;;;;;;;5.47;1.63;;;;;;;23.90;38.60;99937.56;10447036;28;20059;-61
2021/08/09 09:34:55;;;;;;;4.95;1.98;;;;;;;23.46;37.88;99940.81;10446523;28;20119;-61
2021/08/09 09:40:12;;;;;;;3.83;1.90;;;;;;;22.90;38.97;99938.31;10446242;28;20521;-61
2021/08/09 09:45:19;;;;;;;4.05;1.65;;;;;;;24.35;35.95;99931.44;10446730;28;20115;-61
2021/08/09 09:50:24;;;;;;;5.57;1.80;;;;;;;24.83;35.61;99928.31;10406348;28;20132;-61
2021/08/09 09:55:26;;;;;;;8.02;1.77;;;;;;;24.47;37.02;99938.81;10404355;28;20148;-61
2021/08/09 10:00:28;;;;;;;5.32;1.90;;;;;;;23.72;36.00;99950.34;10405561;28;20124;-61
2021/08/09 10:05:37;;;;;;;5.45;1.80;;;;;;;22.86;38.18;99949.47;10405217;28;20081;-61
2021/08/09 10:10:41;;;;;;;4.90;1.80;;;;;;;22.57;38.93;99955.31;10446911;28;20168;-61
2021/08/09 10:15:48;;;;;;;7.95;1.80;;;;;;;22.69;39.28;99952.13;10445671;28;20091;-61
2021/08/09 10:20:51;;;;;;;4.40;2.00;;;;;;;22.61;40.10;99954.81;10440381;28;20044;-61
2021/08/09 10:25:54;;;;;;;5.95;1.60;;;;;;;22.49;40.52;99961.47;10446899;28;20041;-61
2021/08/09 10:30:55;;;;;;;5.70;1.80;;;;;;;22.58;40.73;99962.28;10414211;28;20140;-61
2021/08/09 10:35:57;;;;;;;5.38;1.83;;;;;;;22.70;41.16;99963.59;10403663;28;20055;-61
2021/08/09 10:41:09;;;;;;;5.85;1.83;;;;;;;22.70;41.22;99964.44;10405080;28;20549;-61
2021/08/09 10:46:46;;;;;;;6.13;2.30;;;;;;;22.90;40.28;99967.63;10404898;28;20125;-61
2021/08/09 10:51:50;;;;;;;4.07;1.60;;;;;;;23.45;40.47;99962.34;10353771;28;20409;-61
2021/08/09 10:56:53;;;;;;;10.18;2.08;;;;;;;23.66;39.03;99959.88;10404922;28;20129;-61
2021/08/09 11:01:59;;;;;;;4.68;1.70;;;;;;;23.69;38.43;99966.72;10442256;28;20080;-61
2021/08/09 11:07:15;;;;;;;4.65;1.65;;;;;;;23.55;39.06;99965.63;10444956;28;20472;-61
2021/08/09 11:12:18;;;;;;;8.07;1.70;;;;;;;23.44;38.33;99974.00;10445795;28;20501;-61
2021/08/09 11:17:20;;;;;;;4.53;1.90;;;;;;;23.24;38.98;99978.91;10445312;28;20047;-61
2021/08/09 11:22:21;;;;;;;4.60;1.60;;;;;;;23.05;38.81;99976.59;10442467;28;20129;-62
2021/08/09 11:27:23;;;;;;;5.78;1.80;;;;;;;23.14;39.01;99972.09;10440531;28;20128;-61
2021/08/09 11:32:38;;;;;;;6.00;1.80;;;;;;;23.60;37.90;99973.94;10445017;28;20136;-61
2021/08/09 11:38:15;;;;;;;4.80;1.58;;;;;;;24.28;36.50;99956.19;10445207;28;20077;-61
2021/08/09 11:43:35;;;;;;;5.93;1.70;;;;;;;25.10;35.58;99954.47;10354656;28;20183;-61
2021/08/09 11:48:41;;;;;;;5.22;1.83;;;;;;;24.78;36.88;99960.13;10451302;28;20126;-61
2021/08/09 11:53:51;;;;;;;4.03;1.70;;;;;;;24.32;36.13;99947.81;10438430;28;20464;-62
2021/08/09 11:58:53;;;;;;;3.47;1.58;;;;;;;23.88;37.84;99966.31;10410818;28;20132;-61
2021/08/09 12:04:14;;;;;;;4.45;1.73;;;;;;;23.19;38.60;99962.56;10425941;28;20055;-61
2021/08/09 12:09:18;;;;;;;4.25;1.80;;;;;;;23.08;39.06;99967.44;10440318;28;20085;-61
2021/08/09 12:14:22;;;;;;;5.85;2.05;;;;;;;23.50;37.54;99962.63;10450888;28;20049;-61
2021/08/09 12:19:44;;;;;;;6.38;1.80;;;;;;;23.90;37.44;99961.63;10450516;28;20497;-61
2021/08/09 12:25:08;;;;;;;7.30;2.00;;;;;;;24.05;37.19;99960.66;10449163;28;20485;-61
2021/08/09 12:30:12;;;;;;;6.05;1.83;;;;;;;24.21;36.00;99960.59;10448261;28;20164;-61
2021/08/09 12:35:15;;;;;;;4.30;1.70;;;;;;;24.21;36.01;99957.06;10450623;28;20080;-61
2021/08/09 12:40:18;;;;;;;4.63;1.80;;;;;;;23.93;35.99;99959.41;10448849;28;20127;-61
2021/08/09 12:45:20;;;;;;;6.40;1.75;;;;;;;23.68;36.01;99965.88;10449803;28;20128;-61
2021/08/09 12:50:22;;;;;;;6.20;1.70;;;;;;;23.20;36.98;99971.41;10447425;28;20053;-61
2021/08/09 12:55:27;;;;;;;4.25;1.45;;;;;;;22.93;36.64;99971.78;10421065;28;20069;-61
2021/08/09 13:00:28;;;;;;;5.45;1.98;;;;;;;22.76;36.80;99978.97;10407389;28;20132;-59
2021/08/09 13:05:31;;;;;;;5.40;1.70;;;;;;;22.45;36.55;99976.13;10408026;28;20049;-60
2021/08/09 13:10:37;;;;;;;5.50;1.70;;;;;;;22.57;37.42;99973.97;10448581;28;20109;-59
2021/08/09 13:15:41;;;;;;;4.13;1.60;;;;;;;22.74;37.82;99977.50;10463940;28;20056;-60
2021/08/09 13:20:43;;;;;;;5.57;1.70;;;;;;;22.81;38.11;99975.81;10447808;28;20060;-60
2021/08/09 13:25:45;;;;;;;3.80;1.60;;;;;;;22.95;37.55;99983.13;10448708;28;20131;-60
2021/08/09 13:30:46;;;;;;;4.72;1.60;;;;;;;22.85;37.69;99991.31;10447723;28;20136;-60
2021/08/09 13:35:48;;;;;;;4.38;1.83;;;;;;;22.80;38.28;99979.50;10448497;28;20128;-60
2021/08/09 13:40:50;;;;;;;5.00;1.52;;;;;;;22.76;38.39;99980.81;10448005;28;20091;-60
2021/08/09 13:45:52;;;;;;;6.13;2.05;;;;;;;22.72;38.53;99974.13;10446391;28;20503;-60
2021/08/09 13:50:53;;;;;;;4.53;1.60;;;;;;;23.13;37.22;99967.72;10427381;28;20456;-60
2021/08/09 13:55:55;;;;;;;6.47;1.88;;;;;;;23.28;37.04;99971.38;10406256;28;20072;-60
2021/08/09 14:00:57;;;;;;;5.53;1.55;;;;;;;23.38;36.15;99958.66;10405719;28;20128;-60
2021/08/09 14:05:59;;;;;;;5.07;1.65;;;;;;;23.51;36.62;99964.31;10408742;28;20137;-61
2021/08/09 14:11:00;;;;;;;3.95;1.52;;;;;;;23.55;36.48;99964.78;10446437;28;20413;-61
2021/08/09 14:16:03;;;;;;;3.15;1.50;;;;;;;23.67;36.69;99969.56;10446667;28;20408;-61
2021/08/09 14:21:23;;;;;;;6.15;1.70;;;;;;;23.53;37.59;99961.47;10441174;28;20493;-61
2021/08/09 14:26:25;;;;;;;6.05;1.85;;;;;;;23.42;37.84;99963.50;10443357;28;20489;-61
2021/08/09 14:31:27;;;;;;;4.88;1.73;;;;;;;23.53;37.27;99970.31;10431294;28;20140;-60
2021/08/09 14:36:29;;;;;;;6.55;2.08;;;;;;;23.21;37.40;99962.38;10446047;28;20047;-60
2021/08/09 14:41:31;;;;;;;6.18;1.55;;;;;;;23.34;37.44;99963.50;10442916;28;20131;-61
2021/08/09 14:46:34;;;;;;;4.80;1.63;;;;;;;23.36;37.13;99952.66;10440534;28;20127;-61
2021/08/09 14:51:36;;;;;;;7.05;1.60;;;;;;;23.21;37.92;99957.03;10442084;28;20541;-61
2021/08/09 14:56:37;;;;;;;4.63;1.50;;;;;;;23.44;36.32;99950.81;10459998;28;20053;-60
2021/08/09 15:01:39;;;;;;;3.85;1.63;;;;;;;23.13;36.63;99949.91;10445852;28;20107;-60
2021/08/09 15:06:41;;;;;;;4.43;1.60;;;;;;;23.23;37.65;99949.69;10438954;28;20049;-61
2021/08/09 15:11:43;;;;;;;5.40;1.60;;;;;;;23.33;38.71;99961.03;10440813;28;20134;-60
2021/08/09 15:16:45;;;;;;;4.63;1.75;;;;;;;23.17;38.64;99953.03;10442033;28;20576;-60
2021/08/09 15:21:46;;;;;;;4.03;1.55;;;;;;;23.08;37.79;99964.75;10440899;28;20107;-61
2021/08/09 15:26:48;;;;;;;4.50;1.70;;;;;;;23.25;37.89;99953.84;10417885;28;20103;-60
2021/08/09 15:31:50;;;;;;;4.95;1.70;;;;;;;23.51;37.11;99964.31;10451437;28;20044;-61
2021/08/09 15:36:53;;;;;;;4.20;1.48;;;;;;;23.30;36.61;99959.53;10452869;28;20124;-60
2021/08/09 15:41:55;;;;;;;5.13;1.73;;;;;;;22.84;37.80;99968.28;10450273;28;20133;-60
2021/08/09 15:46:57;;;;;;;3.90;1.38;;;;;;;22.87;38.15;99965.31;10451184;28;20404;-60
2021/08/09 15:51:59;;;;;;;3.22;1.52;;;;;;;23.23;37.27;99960.34;10451928;28;20088;-60
2021/08/09 15:57:00;;;;;;;4.63;1.95;;;;;;;23.48;36.96;99960.16;10447358;28;20127;-60
2021/08/09 16:02:02;;;;;;;4.70;1.67;;;;;;;23.22;37.79;99961.38;10451215;28;20136;-60
2021/08/09 16:07:04;;;;;;;4.93;1.58;;;;;;;22.81;38.59;99965.13;10450946;28;20060;-60
2021/08/09 16:12:06;;;;;;;4.10;1.55;;;;;;;22.59;39.33;99956.81;10449886;28;20088;-60
2021/08/09 16:17:08;;;;;;;6.05;1.67;;;;;;;22.47;38.38;99958.16;10451254;28;20041;-60
2021/08/09 16:22:10;;;;;;;4.25;1.60;;;;;;;22.53;39.25;99961.97;10450025;28;20389;-60
2021/08/09 16:27:12;;;;;;;4.63;1.60;;;;;;;22.65;39.52;99964.13;10445806;28;20073;-60
2021/08/09 16:32:23;;;;;;;6.43;2.00;;;;;;;22.89;39.82;99955.28;10446947;28;20475;-60
2021/08/09 16:37:25;;;;;;;5.10;1.63;;;;;;;22.85;39.60;99953.13;10442432;28;20055;-60
2021/08/09 16:42:27;;;;;;;4.25;1.75;;;;;;;22.68;41.00;99954.94;10448160;28;20072;-60
2021/08/09 16:47:29;;;;;;;7.70;1.80;;;;;;;22.68;40.58;99958.44;10422012;28;20104;-60
2021/08/09 16:52:31;;;;;;;3.85;1.50;;;;;;;22.49;39.58;99956.16;10451562;28;20114;-60
2021/08/09 16:57:33;;;;;;;5.10;1.92;;;;;;;22.27;40.82;99956.78;10442022;28;20053;-60
2021/08/09 17:02:35;;;;;;;6.13;1.65;;;;;;;22.08;41.26;99949.13;10448206;28;20052;-59
2021/08/09 17:07:37;;;;;;;12.00;1.60;;;;;;;22.05;41.76;99951.28;10447597;28;20080;-59
2021/08/09 17:12:39;;;;;;;8.60;1.70;;;;;;;21.93;41.35;99942.72;10445994;28;20463;-59
2021/08/09 17:17:40;;;;;;;6.63;1.65;;;;;;;21.95;42.25;99943.41;10444578;28;20088;-59
2021/08/09 17:22:42;;;;;;;4.72;1.50;;;;;;;21.85;41.64;99943.56;10431958;28;20379;-60
2021/08/09 17:27:44;;;;;;;4.63;1.50;;;;;;;21.96;42.19;99947.75;10443407;28;23238;-60
2021/08/09 17:32:46;;;;;;;3.75;1.50;;;;;;;22.18;42.20;99955.13;10439325;28;20494;-59
2021/08/09 17:37:49;;;;;;;6.30;1.90;;;;;;;22.22;41.76;99963.63;10438555;28;20045;-60
2021/08/09 17:42:51;;;;;;;3.80;1.50;;;;;;;22.04;41.68;99955.78;10433683;28;20083;-60
2021/08/09 17:47:58;;;;;;;5.03;1.48;;;;;;;21.76;42.90;99957.84;10444961;28;20136;-61
2021/08/09 17:53:00;;;;;;;4.00;1.58;;;;;;;21.45;44.30;99966.56;10445300;28;20132;-60
2021/08/09 17:58:02;;;;;;;4.25;1.50;;;;;;;21.14;45.46;99963.53;10444284;28;20045;-60
2021/08/09 18:03:04;;;;;;;7.03;1.83;;;;;;;20.88;45.97;99960.06;10438346;28;20090;-60
2021/08/09 18:08:07;;;;;;;6.55;1.77;;;;;;;20.67;46.99;99963.09;10443778;28;20163;-61
2021/08/09 18:13:09;;;;;;;7.25;1.90;;;;;;;20.39;47.21;99968.63;10433928;28;20052;-60
2021/08/09 18:18:10;;;;;;;5.13;1.80;;;;;;;20.24;47.53;99971.81;10445745;28;20037;-60
2021/08/09 18:23:12;;;;;;;6.88;1.60;;;;;;;20.07;48.63;99969.19;10446955;28;20080;-60
2021/08/09 18:28:14;;;;;;;4.70;1.50;;;;;;;19.80;49.50;99978.00;10428771;28;20092;-60
2021/08/09 18:33:16;;;;;;;5.40;1.83;;;;;;;19.57;49.44;99970.56;10440657;28;20580;-61
2021/08/09 18:38:17;;;;;;;8.88;2.00;;;;;;;19.34;50.61;99973.59;10442527;28;20497;-60
2021/08/09 18:43:24;;;;;;;5.30;1.85;;;;;;;19.11;50.87;99979.44;10444676;28;20049;-60
2021/08/09 18:48:26;;;;;;;6.35;2.03;;;;;;;18.92;52.01;99982.94;10439866;28;20084;-60
2021/08/09 18:53:27;;;;;;;4.88;1.90;;;;;;;18.69;52.31;99978.94;10445652;28;20141;-60
2021/08/09 18:58:29;;;;;;;5.30;1.60;;;;;;;18.56;52.49;99983.69;10452853;28;20131;-63
2021/08/09 19:03:31;;;;;;;6.13;1.80;;;;;;;18.48;52.69;99994.97;10452307;28;20077;-62
2021/08/09 19:08:33;;;;;;;6.50;1.70;;;;;;;18.12;53.12;100005.38;10435081;28;20053;-62
2021/08/09 19:13:34;;;;;;;5.57;1.92;;;;;;;17.93;54.29;100003.56;10453365;28;20136;-62
2021/08/09 19:18:37;;;;;;;6.28;2.20;;;;;;;17.83;54.68;100000.88;10452443;28;20049;-62
2021/08/09 19:23:42;;;;;;;7.70;2.00;;;;;;;17.64;55.49;100003.50;10451940;28;20485;-62
2021/08/09 19:28:43;;;;;;;5.25;1.92;;;;;;;17.57;56.14;100004.13;10451631;28;20132;-62
2021/08/09 19:33:45;;;;;;;6.57;1.80;;;;;;;17.48;56.69;100010.25;10448819;28;20037;-62
2021/08/09 19:38:47;;;;;;;8.15;2.13;;;;;;;17.40;56.74;100013.56;10435317;28;20564;-63
2021/08/09 19:43:50;;;;;;;7.45;2.00;;;;;;;17.33;57.10;100015.06;10449602;28;20056;-62
2021/08/09 19:48:53;;;;;;;10.65;2.13;;;;;;;17.22;57.64;100030.13;10412442;28;20037;-62
2021/08/09 19:53:54;;;;;;;9.57;2.28;;;;;;;16.99;57.83;100030.28;10449661;28;20052;-63
2021/08/09 19:58:57;;;;;;;7.30;2.25;;;;;;;16.62;58.26;100030.84;10445493;28;20454;-62
2021/08/09 20:03:59;;;;;;;9.48;2.47;;;;;;;16.38;59.22;100040.75;10449059;28;20501;-62
2021/08/09 20:09:01;;;;;;;7.25;2.20;;;;;;;16.29;59.00;100036.22;10437079;28;20049;-62
2021/08/09 20:14:02;;;;;;;6.75;2.35;;;;;;;16.17;59.04;100035.44;10450361;28;20136;-63
2021/08/09 20:19:05;;;;;;;5.13;2.00;;;;;;;16.28;59.24;100043.31;10449441;28;20127;-62
2021/08/09 20:24:08;;;;;;;8.75;2.22;;;;;;;16.32;59.36;100033.34;10424132;28;20141;-62
2021/08/09 20:29:11;;;;;;;5.55;2.25;;;;;;;16.29;60.14;100034.44;10447977;28;20049;-62
2021/08/09 20:34:13;;;;;;;8.45;2.22;;;;;;;16.21;60.46;100035.06;10449069;28;20099;-62
2021/08/09 20:39:16;;;;;;;9.23;2.22;;;;;;;16.11;60.45;100039.41;10449242;28;20102;-62
2021/08/09 20:44:19;;;;;;;6.65;2.40;;;;;;;15.76;61.12;100044.03;10448791;28;20052;-62
2021/08/09 20:49:21;;;;;;;6.45;2.20;;;;;;;15.56;61.88;100052.66;10447763;28;20520;-62
2021/08/09 20:54:23;;;;;;;5.68;2.20;;;;;;;15.60;61.56;100047.97;10447707;28;20069;-62
2021/08/09 20:59:25;;;;;;;6.35;2.25;;;;;;;15.63;61.44;100045.97;10432874;28;20481;-62
2021/08/09 21:04:30;;;;;;;9.70;2.40;;;;;;;15.52;61.78;100047.75;10439034;28;20131;-62
2021/08/09 21:09:31;;;;;;;8.95;2.30;;;;;;;15.44;61.85;100050.97;10448004;28;20088;-62
2021/08/09 21:14:33;;;;;;;26.75;2.47;;;;;;;15.38;62.15;100043.53;10447888;28;20049;-62
2021/08/09 21:19:35;;;;;;;9.55;2.33;;;;;;;15.36;62.54;100041.03;10446914;28;20045;-62
2021/08/09 21:24:37;;;;;;;7.22;2.25;;;;;;;15.10;62.14;100046.63;10447205;28;20107;-61
2021/08/09 21:29:39;;;;;;;9.98;2.50;;;;;;;15.03;62.78;100055.94;10445709;28;20128;-62
2021/08/09 21:34:41;;;;;;;6.55;2.20;;;;;;;15.02;62.67;100060.34;10433252;28;20136;-61
2021/08/09 21:39:43;;;;;;;7.32;2.47;;;;;;;14.69;63.50;100060.28;10436130;28;20072;-61
2021/08/09 21:44:45;;;;;;;10.60;2.63;;;;;;;14.68;63.63;100068.25;10440638;28;20131;-62
2021/08/09 21:49:46;;;;;;;8.73;2.92;;;;;;;14.52;63.42;100060.69;10445245;28;20051;-62
2021/08/09 21:54:48;;;;;;;5.95;2.13;;;;;;;14.32;64.05;100070.00;10444563;28;20132;-62
2021/08/09 21:59:50;;;;;;;8.95;2.38;;;;;;;14.39;64.06;100073.03;10443546;28;20106;-61
2021/08/09 22:04:52;;;;;;;6.25;2.33;;;;;;;14.45;63.91;100067.31;10443976;28;20132;-62
2021/08/09 22:09:53;;;;;;;8.95;2.40;;;;;;;14.43;63.63;100072.69;10444080;28;20142;-62
2021/08/09 22:14:55;;;;;;;7.60;2.78;;;;;;;14.37;63.69;100070.50;10443835;28;20132;-62
2021/08/09 22:19:57;;;;;;;11.63;2.67;;;;;;;14.01;63.98;100078.41;10443987;28;20048;-62
2021/08/09 22:24:59;;;;;;;6.95;2.28;;;;;;;13.78;64.80;100080.06;10444560;28;20557;-62
2021/08/09 22:30:04;;;;;;;5.65;2.38;;;;;;;13.81;65.13;100080.78;10433050;28;20121;-62
2021/08/09 22:35:09;;;;;;;7.30;2.47;;;;;;;13.86;64.91;100087.38;10441824;28;20056;-62
2021/08/09 22:40:12;;;;;;;7.07;2.75;;;;;;;13.78;64.90;100084.47;10443535;28;20079;-62
2021/08/09 22:45:14;;;;;;;7.45;2.63;;;;;;;13.80;64.77;100082.56;10443344;28;20084;-62
2021/08/09 22:50:15;;;;;;;8.07;2.40;;;;;;;13.85;64.91;100075.22;10442963;28;20124;-62
2021/08/09 22:55:17;;;;;;;9.23;2.50;;;;;;;13.86;64.92;100084.75;10443624;28;20136;-62
2021/08/09 23:00:19;;;;;;;8.65;2.60;;;;;;;13.86;64.13;100068.16;10441501;28;20048;-62
2021/08/09 23:05:21;;;;;;;9.82;2.75;;;;;;;13.36;64.74;100071.66;10434711;28;20124;-62
2021/08/09 23:10:23;;;;;;;10.13;3.00;;;;;;;13.26;64.90;100087.22;10442827;28;20120;-62
2021/08/09 23:15:25;;;;;;;6.75;2.17;;;;;;;13.31;65.19;100082.47;10443359;28;20569;-62
2021/08/09 23:20:27;;;;;;;7.95;2.50;;;;;;;13.47;64.87;100074.44;10442506;28;20140;-62
2021/08/09 23:25:29;;;;;;;8.70;2.53;;;;;;;13.56;64.58;100081.66;10443171;28;20115;-62